createdAt,value
2023-02-11T00:00:42.154Z,25.30
2023-02-11T00:03:08.922Z,27.90
2023-02-11T00:05:35.481Z,25.33
2023-02-11T00:08:02.034Z,24.08
2023-02-11T00:10:28.501Z,24.30
2023-02-11T00:12:55.158Z,24.58
2023-02-11T00:15:21.662Z,29.17
2023-02-11T00:17:48.194Z,24.05
2023-02-11T00:20:15.109Z,25.30
2023-02-11T00:22:41.616Z,25.95
2023-02-11T00:25:08.290Z,30.05
2023-02-11T00:27:36.838Z,31.45
2023-02-11T00:30:04.177Z,31.77
2023-02-11T00:32:30.813Z,26.33
2023-02-11T00:34:57.453Z,28.45
2023-02-11T00:37:23.927Z,29.13
2023-02-11T00:39:50.377Z,28.35
2023-02-11T00:42:17.058Z,29.33
2023-02-11T00:44:44.914Z,35.95
2023-02-11T00:47:11.416Z,33.45
2023-02-11T00:49:38.141Z,31.95
2023-02-11T00:52:04.804Z,33.05
2023-02-11T00:54:31.311Z,31.95
2023-02-11T00:56:57.807Z,36.88
2023-02-11T00:59:24.454Z,30.65
2023-02-11T01:01:51.323Z,32.70
2023-02-11T01:04:17.881Z,34.45
2023-02-11T01:06:44.415Z,32.33
2023-02-11T01:09:10.870Z,29.85
2023-02-11T01:11:37.384Z,34.33
2023-02-11T01:14:04.342Z,30.60
2023-02-11T01:16:30.832Z,31.83
2023-02-11T01:18:57.305Z,32.33
2023-02-11T01:21:23.805Z,30.52
2023-02-11T01:23:51.095Z,32.75
2023-02-11T01:26:19.399Z,33.20
2023-02-11T01:28:46.202Z,34.55
2023-02-11T01:31:12.902Z,32.55
2023-02-11T01:33:39.757Z,36.63
2023-02-11T01:36:07.551Z,31.77
2023-02-11T01:38:34.780Z,36.63
2023-02-11T01:41:07.486Z,37.22
2023-02-11T01:43:38.775Z,39.08
2023-02-11T01:46:28.667Z,40.10
2023-02-11T01:49:02.634Z,39.97
2023-02-11T01:51:57.176Z,38.35
2023-02-11T01:54:26.571Z,37.22
2023-02-11T01:56:58.087Z,39.13
2023-02-11T01:59:32.036Z,38.47
2023-02-11T02:02:05.461Z,37.13
2023-02-11T02:04:42.060Z,35.67
2023-02-11T02:07:14.180Z,44.58
2023-02-11T02:09:48.523Z,39.17
2023-02-11T02:12:15.072Z,41.47
2023-02-11T02:14:42.439Z,37.20
2023-02-11T02:17:27.400Z,36.15
2023-02-11T02:20:18.175Z,33.65
2023-02-11T02:22:47.383Z,34.63
2023-02-11T02:25:58.694Z,33.13
2023-02-11T02:28:37.452Z,32.83
2023-02-11T02:31:12.902Z,34.45
2023-02-11T02:33:42.070Z,39.15
2023-02-11T02:36:18.399Z,35.72
2023-02-11T02:38:57.757Z,31.25
2023-02-11T02:41:32.233Z,32.20
2023-02-11T02:43:58.937Z,33.28
2023-02-11T02:46:33.463Z,31.92
2023-02-11T02:49:01.049Z,31.23
2023-02-11T02:51:58.171Z,36.08
2023-02-11T02:54:27.412Z,33.03
2023-02-11T02:57:15.274Z,33.97
2023-02-11T03:00:03.364Z,37.33
2023-02-11T03:03:15.459Z,35.25
2023-02-11T03:06:03.902Z,36.28
2023-02-11T03:08:39.473Z,30.80
2023-02-11T03:11:09.092Z,29.25
2023-02-11T03:13:37.399Z,31.20
2023-02-11T03:16:14.806Z,32.30
2023-02-11T03:18:46.135Z,30.83
2023-02-11T03:21:15.946Z,37.95
2023-02-11T03:23:51.321Z,33.50
2023-02-11T03:26:49.552Z,36.28
2023-02-11T03:29:48.059Z,36.55
2023-02-11T03:32:25.343Z,32.13
2023-02-11T03:35:00.596Z,34.42
2023-02-11T03:37:48.523Z,32.92
2023-02-11T03:40:19.618Z,27.00
2023-02-11T03:42:50.823Z,29.63
2023-02-11T03:45:21.316Z,33.30
2023-02-11T03:47:54.804Z,29.63
2023-02-11T03:50:22.827Z,35.13
2023-02-11T03:52:50.174Z,28.75
2023-02-11T03:55:19.234Z,30.17
2023-02-11T03:57:46.982Z,29.20
2023-02-11T04:00:13.975Z,32.63
2023-02-11T04:02:41.013Z,33.35
2023-02-11T04:05:14.279Z,30.85
2023-02-11T04:07:40.796Z,28.45
2023-02-11T04:10:08.196Z,28.83
2023-02-11T04:12:34.692Z,29.48
2023-02-11T04:15:01.168Z,27.73
2023-02-11T04:17:27.671Z,26.65
2023-02-11T04:19:54.089Z,30.48
2023-02-11T04:22:20.568Z,30.50
2023-02-11T04:24:47.047Z,31.40
2023-02-11T04:27:13.523Z,31.42
2023-02-11T04:29:40.070Z,30.35
2023-02-11T04:32:06.607Z,28.65
2023-02-11T04:34:33.191Z,33.13
2023-02-11T04:36:59.689Z,34.88
2023-02-11T04:39:26.270Z,32.15
2023-02-11T04:41:52.843Z,32.15
2023-02-11T04:44:19.363Z,31.48
2023-02-11T04:46:45.889Z,29.92
2023-02-11T04:49:16.918Z,33.25
2023-02-11T04:51:44.062Z,30.80
2023-02-11T04:54:11.396Z,33.55
2023-02-11T04:56:38.012Z,37.58
2023-02-11T04:59:05.189Z,37.95
2023-02-11T05:01:31.919Z,36.00
2023-02-11T05:03:59.734Z,35.80
2023-02-11T05:06:26.446Z,36.58
2023-02-11T05:08:52.933Z,41.88
2023-02-11T05:11:22.752Z,33.97
2023-02-11T05:13:49.311Z,44.45
2023-02-11T05:16:16.827Z,32.80
2023-02-11T05:18:44.481Z,35.47
2023-02-11T05:21:14.614Z,39.63
2023-02-11T05:23:41.361Z,39.28
2023-02-11T05:26:09.039Z,42.95
2023-02-11T05:28:35.636Z,39.40
2023-02-11T05:31:02.482Z,35.78
2023-02-11T05:33:29.089Z,41.30
2023-02-11T05:36:00.384Z,41.42
2023-02-11T05:38:27.196Z,42.80
2023-02-11T05:40:54.299Z,39.10
2023-02-11T05:43:20.941Z,40.35
2023-02-11T05:45:47.579Z,43.40
2023-02-11T05:48:14.427Z,38.10
2023-02-11T05:50:41.094Z,36.50
2023-02-11T05:53:07.672Z,38.85
2023-02-11T05:55:34.370Z,42.67
2023-02-11T05:58:01.010Z,39.45
2023-02-11T06:00:28.247Z,39.92
2023-02-11T06:02:54.932Z,38.35
2023-02-11T06:05:21.578Z,38.60
2023-02-11T06:07:48.101Z,37.78
2023-02-11T06:10:14.634Z,35.67
2023-02-11T06:12:41.136Z,37.75
2023-02-11T06:15:07.953Z,42.22
2023-02-11T06:17:34.451Z,40.15
2023-02-11T06:20:01.197Z,38.20
2023-02-11T06:22:27.696Z,37.60
2023-02-11T06:25:01.204Z,31.55
2023-02-11T06:27:28.652Z,33.63
2023-02-11T06:29:55.116Z,40.80
2023-02-11T06:32:42.183Z,37.22
2023-02-11T06:35:10.756Z,36.15
2023-02-11T06:37:38.390Z,34.67
2023-02-11T06:40:05.236Z,33.85
2023-02-11T06:42:31.770Z,33.03
2023-02-11T06:44:58.220Z,30.00
2023-02-11T06:47:24.776Z,35.15
2023-02-11T06:49:51.279Z,31.15
2023-02-11T06:52:17.734Z,28.98
2023-02-11T06:54:44.193Z,36.45
2023-02-11T06:57:10.697Z,30.42
2023-02-11T06:59:37.146Z,30.65
2023-02-11T07:02:03.691Z,31.70
2023-02-11T07:04:30.241Z,32.30
2023-02-11T07:06:56.734Z,27.13
2023-02-11T07:09:23.202Z,29.88
2023-02-11T07:11:49.740Z,27.92
2023-02-11T07:14:16.193Z,27.55
2023-02-11T07:16:42.735Z,29.23
2023-02-11T07:19:09.197Z,26.67
2023-02-11T07:21:35.694Z,29.67
2023-02-11T07:24:05.758Z,31.55
2023-02-11T07:26:32.408Z,27.60
2023-02-11T07:28:58.935Z,29.08
2023-02-11T07:31:28.259Z,27.23
2023-02-11T07:33:59.392Z,28.67
2023-02-11T07:36:26.444Z,19.27
2023-02-11T07:38:52.980Z,26.60
2023-02-11T07:41:22.793Z,26.15
2023-02-11T07:43:49.647Z,28.23
2023-02-11T07:46:27.387Z,28.42
2023-02-11T07:48:54.653Z,24.85
2023-02-11T07:51:24.279Z,24.50
2023-02-11T07:53:52.236Z,25.52
2023-02-11T07:56:20.156Z,21.50
2023-02-11T07:58:47.546Z,23.70
2023-02-11T08:01:20.529Z,21.85
2023-02-11T08:03:47.131Z,23.33
2023-02-11T08:06:16.050Z,20.25
2023-02-11T08:08:43.448Z,28.83
2023-02-11T08:11:15.709Z,20.45
2023-02-11T08:13:42.542Z,17.20
2023-02-11T08:16:09.922Z,19.02
2023-02-11T08:18:36.521Z,22.08
2023-02-11T08:21:08.157Z,17.33
2023-02-11T08:26:06.601Z,16.63
2023-02-11T08:28:36.530Z,16.95
2023-02-11T08:31:12.426Z,16.48
2023-02-11T08:33:39.566Z,20.15
2023-02-11T08:36:14.652Z,16.75
2023-02-11T08:38:41.946Z,15.43
2023-02-11T08:41:09.586Z,17.33
2023-02-11T08:43:37.057Z,16.45
2023-02-11T08:46:04.064Z,16.98
2023-02-11T08:48:30.550Z,16.75
2023-02-11T08:50:57.779Z,16.60
2023-02-11T08:53:25.067Z,19.10
2023-02-11T08:55:53.659Z,13.95
2023-02-11T08:58:21.209Z,14.55
2023-02-11T09:00:49.527Z,15.80
2023-02-11T09:03:17.200Z,12.70
2023-02-11T09:05:49.003Z,13.48
2023-02-11T09:08:16.818Z,12.30
2023-02-11T09:10:43.470Z,19.75
2023-02-11T09:13:10.228Z,13.05
2023-02-11T09:15:37.132Z,15.60
2023-02-11T09:18:04.912Z,15.57
2023-02-11T09:20:31.871Z,15.18
2023-02-11T09:22:59.120Z,13.82
2023-02-11T09:25:26.166Z,12.45
2023-02-11T09:27:52.643Z,15.20
2023-02-11T09:30:19.610Z,16.95
2023-02-11T09:32:46.076Z,12.20
2023-02-11T09:35:12.542Z,17.98
2023-02-11T09:37:39.066Z,13.25
2023-02-11T09:40:06.100Z,14.55
2023-02-11T09:42:50.688Z,12.60
2023-02-11T09:45:27.360Z,13.93
2023-02-11T09:48:06.362Z,11.75
2023-02-11T09:50:40.787Z,9.88
2023-02-11T09:53:31.458Z,12.63
2023-02-11T09:56:09.522Z,10.93
2023-02-11T09:58:39.745Z,12.43
2023-02-11T10:01:30.879Z,10.52
2023-02-11T10:04:02.769Z,14.00
2023-02-11T10:06:41.234Z,11.70
2023-02-11T10:09:22.320Z,13.50
2023-02-11T10:12:18.690Z,14.10
2023-02-11T10:15:03.290Z,12.82
2023-02-11T10:17:53.663Z,11.95
2023-02-11T10:20:29.388Z,13.63
2023-02-11T10:22:59.944Z,18.10
2023-02-11T10:25:48.889Z,11.55
2023-02-11T10:28:21.704Z,11.88
2023-02-11T10:30:59.591Z,12.80
2023-02-11T10:33:41.024Z,14.88
2023-02-11T10:36:10.418Z,11.55
2023-02-11T10:38:36.901Z,10.13
2023-02-11T10:41:04.111Z,11.07
2023-02-11T10:43:32.447Z,12.35
2023-02-11T10:46:02.624Z,14.75
2023-02-11T10:48:36.711Z,10.35
2023-02-11T10:51:26.109Z,9.90
2023-02-11T10:54:04.819Z,11.50
2023-02-11T10:56:35.342Z,10.45
2023-02-11T10:59:07.320Z,9.13
2023-02-11T11:01:59.477Z,13.93
2023-02-11T11:04:42.245Z,9.95
2023-02-11T11:07:19.764Z,11.38
2023-02-11T11:09:53.856Z,9.90
2023-02-11T11:12:46.207Z,8.40
2023-02-11T11:15:27.034Z,8.75
2023-02-11T11:18:21.023Z,11.50
2023-02-11T11:21:04.510Z,9.20
2023-02-11T11:23:31.718Z,12.80
2023-02-11T11:26:11.119Z,8.35
2023-02-11T11:28:49.456Z,14.30
2023-02-11T11:31:35.341Z,12.35
2023-02-11T11:34:22.273Z,8.43
2023-02-11T11:36:50.290Z,10.05
2023-02-11T11:39:16.676Z,10.48
2023-02-11T11:42:26.014Z,12.10
2023-02-11T11:45:16.971Z,10.50
2023-02-11T11:47:58.658Z,8.63
2023-02-11T11:53:20.582Z,8.45
2023-02-11T11:56:06.848Z,7.65
2023-02-11T11:58:34.408Z,8.68
2023-02-11T12:01:22.201Z,14.38
2023-02-11T12:04:18.962Z,12.45
2023-02-11T12:07:19.523Z,16.67
2023-02-11T12:10:20.025Z,16.88
2023-02-11T12:12:52.173Z,16.15
2023-02-11T12:15:21.750Z,14.05
2023-02-11T12:18:06.372Z,12.35
2023-02-11T12:21:11.518Z,12.85
2023-02-11T12:24:18.817Z,10.38
2023-02-11T12:27:00.317Z,7.45
2023-02-11T12:29:53.603Z,8.52
2023-02-11T12:32:32.111Z,8.32
2023-02-11T12:35:24.723Z,7.20
2023-02-11T12:38:20.598Z,9.75
2023-02-11T12:41:15.052Z,9.35
2023-02-11T12:43:44.450Z,7.40
2023-02-11T12:46:23.140Z,9.75
2023-02-11T12:49:13.835Z,6.72
2023-02-11T12:52:14.394Z,8.00
2023-02-11T12:54:48.270Z,7.53
2023-02-11T12:57:22.925Z,7.18
2023-02-11T13:00:00.593Z,6.40
2023-02-11T13:02:41.332Z,7.50
2023-02-11T13:05:25.893Z,9.57
2023-02-11T13:07:58.011Z,10.57
2023-02-11T13:10:24.570Z,6.97
2023-02-11T13:12:54.295Z,7.60
2023-02-11T13:15:20.792Z,9.63
2023-02-11T13:17:59.226Z,6.40
2023-02-11T13:20:47.997Z,7.43
2023-02-11T13:23:46.857Z,7.85
2023-02-11T13:26:39.211Z,6.28
2023-02-11T13:29:34.607Z,7.30
2023-02-11T13:32:10.894Z,7.32
2023-02-11T13:34:43.530Z,9.15
2023-02-11T13:37:31.919Z,4.78
2023-02-11T13:40:03.357Z,9.43
2023-02-11T13:42:32.377Z,4.88
2023-02-11T13:44:58.970Z,5.22
2023-02-11T13:47:32.823Z,7.63
2023-02-11T13:50:01.918Z,8.85
2023-02-11T13:52:37.603Z,9.30
2023-02-11T13:55:13.182Z,10.40
2023-02-11T13:57:41.322Z,7.72
2023-02-11T14:00:48.823Z,6.38
2023-02-11T14:03:31.719Z,6.00
2023-02-11T14:06:10.302Z,8.38
2023-02-11T14:08:39.003Z,7.90
2023-02-11T14:11:29.740Z,6.95
2023-02-11T14:14:17.889Z,11.77
2023-02-11T14:17:07.207Z,6.80
2023-02-11T14:19:36.414Z,5.80
2023-02-11T14:22:05.127Z,5.50
2023-02-11T14:24:34.317Z,6.43
2023-02-11T14:27:09.694Z,8.73
2023-02-11T14:29:59.639Z,8.65
2023-02-11T14:32:41.562Z,7.47
2023-02-11T14:35:43.116Z,10.00
2023-02-11T14:38:22.520Z,10.93
2023-02-11T14:40:58.405Z,6.75
2023-02-11T14:43:30.867Z,7.80
2023-02-11T14:45:58.604Z,7.00
2023-02-11T14:48:34.641Z,5.90
2023-02-11T14:51:12.684Z,6.30
2023-02-11T14:53:44.142Z,6.85
2023-02-11T14:56:28.524Z,6.50
2023-02-11T14:58:55.396Z,9.90
2023-02-11T15:01:35.548Z,7.20
2023-02-11T15:04:04.443Z,6.72
2023-02-11T15:06:32.496Z,7.95
2023-02-11T15:09:13.872Z,9.27
2023-02-11T15:11:43.553Z,7.60
2023-02-11T15:14:19.533Z,11.65
2023-02-11T15:16:47.253Z,7.93
2023-02-11T15:19:34.218Z,7.47
2023-02-11T15:22:04.083Z,6.97
2023-02-11T15:24:33.029Z,7.93
2023-02-11T15:27:09.922Z,8.57
2023-02-11T15:29:39.086Z,6.80
2023-02-11T15:32:17.235Z,7.13
2023-02-11T15:34:45.344Z,9.55
2023-02-11T15:37:30.046Z,6.65
2023-02-11T15:40:12.873Z,8.63
2023-02-11T15:42:52.128Z,6.00
2023-02-11T15:45:29.407Z,6.78
2023-02-11T15:47:59.789Z,7.57
2023-02-11T15:50:29.983Z,6.88
2023-02-11T15:53:05.274Z,6.68
2023-02-11T15:55:32.437Z,8.15
2023-02-11T15:58:01.520Z,9.38
2023-02-11T16:00:38.198Z,5.93
2023-02-11T16:03:04.957Z,8.10
2023-02-11T16:05:36.855Z,8.57
2023-02-11T16:08:32.575Z,9.55
2023-02-11T16:11:01.578Z,7.22
2023-02-11T16:13:30.330Z,8.48
2023-02-11T16:16:05.472Z,11.05
2023-02-11T16:18:39.785Z,10.18
2023-02-11T16:21:14.012Z,8.55
2023-02-11T16:23:41.382Z,9.13
2023-02-11T16:26:20.444Z,8.68
2023-02-11T16:28:47.202Z,16.63
2023-02-11T16:31:13.855Z,12.05
2023-02-11T16:33:40.392Z,14.43
2023-02-11T16:36:14.779Z,11.80
2023-02-11T16:38:41.291Z,9.52
2023-02-11T16:41:07.808Z,13.18
2023-02-11T16:43:34.358Z,6.57
2023-02-11T16:46:00.857Z,10.55
2023-02-11T16:48:27.519Z,8.85
2023-02-11T16:50:54.140Z,10.00
2023-02-11T16:53:24.058Z,7.45
2023-02-11T16:55:52.649Z,7.57
2023-02-11T16:58:19.569Z,8.75
2023-02-11T17:00:47.802Z,17.02
2023-02-11T17:03:22.750Z,8.65
2023-02-11T17:05:55.599Z,9.68
2023-02-11T17:08:22.308Z,6.22
2023-02-11T17:10:49.052Z,10.20
2023-02-11T17:13:15.751Z,5.72
2023-02-11T17:15:42.200Z,7.40
2023-02-11T17:18:12.617Z,9.88
2023-02-11T17:20:39.132Z,20.17
2023-02-11T17:23:05.624Z,14.23
2023-02-11T17:25:32.141Z,12.45
2023-02-11T17:27:58.650Z,15.40
2023-02-11T17:30:25.149Z,12.00
2023-02-11T17:32:51.594Z,17.98
2023-02-11T17:35:18.103Z,12.20
2023-02-11T17:37:44.638Z,15.48
2023-02-11T17:40:11.893Z,14.02
2023-02-11T17:42:38.551Z,12.73
2023-02-11T17:45:05.604Z,10.88
2023-02-11T17:47:32.051Z,15.25
2023-02-11T17:49:58.587Z,12.95
2023-02-11T17:52:25.195Z,11.70
2023-02-11T17:54:51.950Z,11.10
2023-02-11T17:57:18.436Z,13.20
2023-02-11T17:59:45.045Z,11.48
2023-02-11T18:02:12.789Z,13.55
2023-02-11T18:04:39.473Z,13.82
2023-02-11T18:07:06.879Z,12.60
2023-02-11T18:09:37.724Z,11.60
2023-02-11T18:12:04.784Z,15.52
2023-02-11T18:14:31.528Z,13.07
2023-02-11T18:16:58.109Z,13.68
2023-02-11T18:19:24.704Z,16.70
2023-02-11T18:21:51.163Z,21.92
2023-02-11T18:24:17.952Z,20.70
2023-02-11T18:26:44.403Z,20.35
2023-02-11T18:29:10.965Z,20.13
2023-02-11T18:31:37.889Z,13.63
2023-02-11T18:34:06.354Z,19.95
2023-02-11T18:36:33.667Z,17.85
2023-02-11T18:39:00.230Z,20.63
2023-02-11T18:41:27.103Z,27.30
2023-02-11T18:43:53.807Z,24.33
2023-02-11T18:46:20.299Z,17.13
2023-02-11T18:48:46.805Z,14.80
2023-02-11T18:51:16.118Z,17.35
2023-02-11T18:53:42.974Z,16.40
2023-02-11T18:56:12.213Z,16.23
2023-02-11T18:58:39.313Z,12.27
2023-02-11T19:01:14.970Z,12.60
2023-02-11T19:03:42.288Z,17.63
2023-02-11T19:06:14.832Z,25.65
2023-02-11T19:08:41.756Z,17.08
2023-02-11T19:11:08.247Z,18.75
2023-02-11T19:13:34.961Z,20.00
2023-02-11T19:16:05.382Z,19.88
2023-02-11T19:18:31.930Z,16.65
2023-02-11T19:20:58.365Z,16.70
2023-02-11T19:23:24.868Z,20.15
2023-02-11T19:25:51.589Z,17.35
2023-02-11T19:28:18.333Z,18.05
2023-02-11T19:30:44.844Z,17.70
2023-02-11T19:33:11.453Z,17.38
2023-02-11T19:35:37.908Z,18.60
2023-02-11T19:38:05.083Z,19.73
2023-02-11T19:40:32.080Z,22.60
2023-02-11T19:42:58.654Z,21.85
2023-02-11T19:45:25.201Z,18.02
2023-02-11T19:47:55.530Z,18.13
2023-02-11T19:50:22.322Z,20.48
2023-02-11T19:52:48.941Z,15.23
2023-02-11T19:55:15.498Z,15.80
2023-02-11T19:57:42.052Z,11.75
2023-02-11T20:00:08.988Z,14.05
2023-02-11T20:02:39.474Z,15.38
2023-02-11T20:05:06.615Z,15.63
2023-02-11T20:07:33.093Z,17.08
2023-02-11T20:09:59.666Z,16.92
2023-02-11T20:12:26.140Z,17.73
2023-02-11T20:14:52.607Z,16.08
2023-02-11T20:17:19.043Z,16.30
2023-02-11T20:19:45.545Z,18.67
2023-02-11T20:22:12.038Z,17.20
2023-02-11T20:24:38.685Z,18.98
2023-02-11T20:27:05.168Z,20.85
2023-02-11T20:29:31.645Z,20.58
2023-02-11T20:31:58.318Z,18.15
2023-02-11T20:34:25.226Z,18.58
2023-02-11T20:36:52.191Z,19.23
2023-02-11T20:39:20.746Z,23.80
2023-02-11T20:41:47.205Z,21.00
2023-02-11T20:44:13.910Z,17.20
2023-02-11T20:46:43.567Z,17.13
2023-02-11T20:49:12.297Z,15.82
2023-02-11T20:51:39.241Z,19.83
2023-02-11T20:54:06.089Z,16.98
2023-02-11T20:56:35.976Z,16.17
2023-02-11T20:59:03.585Z,18.52
2023-02-11T21:01:34.200Z,19.05
2023-02-11T21:04:11.107Z,21.30
2023-02-11T21:06:40.749Z,19.10
2023-02-11T21:09:09.575Z,18.70
2023-02-11T21:11:36.310Z,17.83
2023-02-11T21:14:02.958Z,20.10
2023-02-11T21:16:29.509Z,20.33
2023-02-11T21:18:56.086Z,19.08
2023-02-11T21:21:23.015Z,26.15
2023-02-11T21:23:49.762Z,16.67
2023-02-11T21:26:16.310Z,17.75
2023-02-11T21:28:43.231Z,18.95
2023-02-11T21:31:23.130Z,25.15
2023-02-11T21:33:50.826Z,19.85
2023-02-11T21:36:17.764Z,19.90
2023-02-11T21:38:44.483Z,21.52
2023-02-11T21:41:11.418Z,21.08
2023-02-11T21:43:38.175Z,19.45
2023-02-11T21:46:13.143Z,21.23
2023-02-11T21:48:39.766Z,20.90
2023-02-11T21:51:08.971Z,23.63
2023-02-11T21:53:35.844Z,25.17
2023-02-11T21:56:04.742Z,25.23
2023-02-11T21:58:31.369Z,29.80
2023-02-11T22:00:57.899Z,27.55
2023-02-11T22:03:24.385Z,27.42
2023-02-11T22:05:50.839Z,28.88
2023-02-11T22:08:20.048Z,29.83
2023-02-11T22:10:46.650Z,32.90
2023-02-11T22:13:13.150Z,33.67
2023-02-11T22:15:39.598Z,34.20
2023-02-11T22:18:06.116Z,31.42
2023-02-11T22:20:32.614Z,34.72
2023-02-11T22:22:59.104Z,32.13
2023-02-11T22:25:25.559Z,35.00
2023-02-11T22:27:52.027Z,29.35
2023-02-11T22:30:18.613Z,26.23
2023-02-11T22:32:45.212Z,27.52
2023-02-11T22:35:11.666Z,28.73
2023-02-11T22:37:38.153Z,28.20
2023-02-11T22:40:06.442Z,24.70
2023-02-11T22:42:32.954Z,26.48
2023-02-11T22:44:59.489Z,25.90
2023-02-11T22:47:26.086Z,27.38
2023-02-11T22:49:52.529Z,20.55
2023-02-11T22:52:19.055Z,24.55
2023-02-11T22:54:45.581Z,21.80
2023-02-11T22:57:12.096Z,22.83
2023-02-11T22:59:38.563Z,22.90
2023-02-11T23:02:05.182Z,21.40
2023-02-11T23:04:31.710Z,22.95
2023-02-11T23:06:58.186Z,23.02
2023-02-11T23:09:24.629Z,18.00
2023-02-11T23:11:51.085Z,20.38
2023-02-11T23:14:17.558Z,21.88
2023-02-11T23:16:44.087Z,25.98
2023-02-11T23:19:10.836Z,21.48
2023-02-11T23:21:38.890Z,21.25
2023-02-11T23:24:09.810Z,19.75
2023-02-11T23:26:38.669Z,25.10
2023-02-11T23:29:05.584Z,23.38
2023-02-11T23:31:38.066Z,23.08
2023-02-11T23:34:06.254Z,29.48
2023-02-11T23:36:33.314Z,31.15
2023-02-11T23:38:59.843Z,32.45
2023-02-11T23:41:26.682Z,37.05
2023-02-11T23:43:55.593Z,29.98
2023-02-11T23:46:24.293Z,33.38
2023-02-11T23:48:51.723Z,32.30
2023-02-11T23:51:18.983Z,30.98
2023-02-11T23:53:45.579Z,24.73
2023-02-11T23:56:18.261Z,26.13
2023-02-11T23:58:47.537Z,25.17
